Time;durP1;ratioP1;P1;durP2;ratioP2;P2;SDS_P1;SDS_P2;PMS_P1;PMS_P2;Temp;Humidity;BMP_temperature;BMP_pressure;BME280_temperature;BME280_humidity;BME280_pressure;Samples;Min_cycle;Max_cycle;Signal;HPM_P1;HPM_P2
2023/08/02 00:00:33;;;;;;;0.10;0.10;;;;;;;;;;4934934;29;20051;-59
2023/08/02 00:03:02;;;;;;;0.10;0.10;;;;;;;;;;4934710;29;20565;-59
2023/08/02 00:05:32;;;;;;;0.00;0.00;;;;;;;;;;4934668;29;20147;-59
2023/08/02 00:07:59;;;;;;;0.10;0.10;;;;;;;;;;4937338;29;20376;-59
2023/08/02 00:10:26;;;;;;;0.10;0.10;;;;;;;;;;4938043;29;20048;-59
2023/08/02 00:12:53;;;;;;;0.00;0.00;;;;;;;;;;4937907;29;20384;-59
2023/08/02 00:15:20;;;;;;;0.00;0.00;;;;;;;;;;4938046;29;20040;-59
2023/08/02 00:17:47;;;;;;;0.03;0.03;;;;;;;;;;4937862;29;20499;-60
2023/08/02 00:20:16;;;;;;;0.08;0.08;;;;;;;;;;4937876;29;20147;-59
2023/08/02 00:22:43;;;;;;;0.00;0.00;;;;;;;;;;4937789;29;20103;-59
2023/08/02 00:25:10;;;;;;;0.00;0.00;;;;;;;;;;4937768;29;20047;-59
2023/08/02 00:27:37;;;;;;;0.00;0.00;;;;;;;;;;4937652;29;20058;-60
2023/08/02 00:30:05;;;;;;;0.00;0.00;;;;;;;;;;4936616;29;20075;-58
2023/08/02 00:32:32;;;;;;;0.05;0.05;;;;;;;;;;4936490;29;20494;-59
2023/08/02 00:35:00;;;;;;;0.00;0.00;;;;;;;;;;4937736;29;20130;-58
2023/08/02 00:37:29;;;;;;;0.00;0.00;;;;;;;;;;4937506;29;20502;-58
2023/08/02 00:39:56;;;;;;;0.05;0.05;;;;;;;;;;4937506;29;20070;-58
2023/08/02 00:42:23;;;;;;;0.10;0.10;;;;;;;;;;4937316;29;20048;-59
2023/08/02 00:44:50;;;;;;;0.00;0.00;;;;;;;;;;4937433;29;20379;-58
2023/08/02 00:47:17;;;;;;;0.10;0.10;;;;;;;;;;4936191;29;20048;-59
2023/08/02 00:49:45;;;;;;;0.00;0.00;;;;;;;;;;4937794;29;20043;-58
2023/08/02 00:52:12;;;;;;;0.00;0.00;;;;;;;;;;4937552;29;20439;-59
2023/08/02 00:54:41;;;;;;;0.10;0.10;;;;;;;;;;4937551;29;20050;-60
2023/08/02 00:57:08;;;;;;;0.00;0.00;;;;;;;;;;4937151;29;20052;-59
2023/08/02 00:59:37;;;;;;;0.00;0.00;;;;;;;;;;4937525;29;20578;-59
2023/08/02 01:02:05;;;;;;;0.03;0.03;;;;;;;;;;4936994;29;20079;-59
2023/08/02 01:04:32;;;;;;;0.10;0.10;;;;;;;;;;4937073;29;20051;-59
2023/08/02 01:07:00;;;;;;;0.10;0.10;;;;;;;;;;4936046;29;20102;-59
2023/08/02 01:09:27;;;;;;;0.00;0.00;;;;;;;;;;4935809;29;20483;-59
2023/08/02 01:11:57;;;;;;;0.00;0.00;;;;;;;;;;4937313;29;20048;-59
2023/08/02 01:14:24;;;;;;;0.10;0.10;;;;;;;;;;4951698;29;20099;-58
2023/08/02 01:16:51;;;;;;;0.10;0.10;;;;;;;;;;4951559;29;20051;-58
2023/08/02 01:19:20;;;;;;;0.10;0.10;;;;;;;;;;4950560;28;20423;-59
2023/08/02 01:21:49;;;;;;;0.10;0.10;;;;;;;;;;4936685;29;20055;-59
2023/08/02 01:24:16;;;;;;;0.00;0.00;;;;;;;;;;4936528;29;20395;-59
2023/08/02 01:26:44;;;;;;;0.00;0.00;;;;;;;;;;4935238;29;20443;-59
2023/08/02 01:29:12;;;;;;;0.10;0.10;;;;;;;;;;4936752;29;20514;-59
2023/08/02 01:31:39;;;;;;;0.00;0.00;;;;;;;;;;4936568;29;20070;-58
2023/08/02 01:34:06;;;;;;;0.00;0.00;;;;;;;;;;4936468;29;20047;-58
2023/08/02 01:36:34;;;;;;;0.00;0.00;;;;;;;;;;4936474;29;20055;-59
2023/08/02 01:39:02;;;;;;;0.00;0.00;;;;;;;;;;4935447;29;20043;-59
2023/08/02 01:41:29;;;;;;;0.08;0.08;;;;;;;;;;4936243;29;20047;-59
2023/08/02 01:43:56;;;;;;;0.00;0.00;;;;;;;;;;4936320;29;20414;-58
2023/08/02 01:46:23;;;;;;;0.00;0.00;;;;;;;;;;4936555;29;20142;-59
2023/08/02 01:48:50;;;;;;;0.03;0.03;;;;;;;;;;4936582;29;20459;-59
2023/08/02 01:51:18;;;;;;;0.00;0.00;;;;;;;;;;4951236;29;20125;-59
2023/08/02 01:53:45;;;;;;;0.00;0.00;;;;;;;;;;4935949;29;20058;-59
2023/08/02 01:56:13;;;;;;;0.00;0.00;;;;;;;;;;4935980;29;20491;-58
2023/08/02 01:58:42;;;;;;;0.00;0.00;;;;;;;;;;4934905;29;20052;-59
2023/08/02 02:01:09;;;;;;;0.00;0.00;;;;;;;;;;4950869;29;20044;-59
2023/08/02 02:03:36;;;;;;;0.10;0.10;;;;;;;;;;4950781;29;20071;-59
2023/08/02 02:06:03;;;;;;;0.10;0.10;;;;;;;;;;4936021;29;20067;-59
2023/08/02 02:08:30;;;;;;;0.03;0.03;;;;;;;;;;4935943;29;20464;-59
2023/08/02 02:10:57;;;;;;;0.10;0.10;;;;;;;;;;4935864;29;20047;-59
2023/08/02 02:13:26;;;;;;;0.08;0.08;;;;;;;;;;4935996;29;20099;-59
2023/08/02 02:15:53;;;;;;;0.10;0.10;;;;;;;;;;4936108;29;20456;-59
2023/08/02 02:18:21;;;;;;;0.10;0.10;;;;;;;;;;4950569;29;20061;-59
2023/08/02 02:20:48;;;;;;;0.00;0.00;;;;;;;;;;4935877;29;20138;-59
2023/08/02 02:23:15;;;;;;;0.10;0.10;;;;;;;;;;4934572;29;20139;-59
2023/08/02 02:25:43;;;;;;;0.03;0.03;;;;;;;;;;4935843;29;20138;-59
2023/08/02 02:28:11;;;;;;;0.00;0.00;;;;;;;;;;4934510;29;20047;-58
2023/08/02 02:30:42;;;;;;;0.10;0.10;;;;;;;;;;4949873;28;20050;-59
2023/08/02 02:33:09;;;;;;;0.00;0.00;;;;;;;;;;4936370;29;20476;-59
2023/08/02 02:35:39;;;;;;;0.10;0.10;;;;;;;;;;4950630;29;20159;-59
2023/08/02 02:38:06;;;;;;;0.15;0.15;;;;;;;;;;4935375;29;20464;-59
2023/08/02 02:40:33;;;;;;;0.10;0.10;;;;;;;;;;4935481;29;20051;-59
2023/08/02 02:43:00;;;;;;;0.05;0.05;;;;;;;;;;4934236;29;20044;-59
2023/08/02 02:45:27;;;;;;;0.03;0.03;;;;;;;;;;4935766;29;20074;-59
2023/08/02 02:47:56;;;;;;;0.10;0.10;;;;;;;;;;4936050;29;20043;-58
2023/08/02 02:50:25;;;;;;;0.00;0.00;;;;;;;;;;4934326;29;20138;-59
2023/08/02 02:52:52;;;;;;;0.00;0.00;;;;;;;;;;4949933;29;20073;-59
2023/08/02 02:55:19;;;;;;;0.00;0.00;;;;;;;;;;4934042;29;20095;-58
2023/08/02 02:57:46;;;;;;;0.10;0.10;;;;;;;;;;4935034;29;20083;-58
2023/08/02 03:00:13;;;;;;;0.10;0.10;;;;;;;;;;4935359;29;20144;-58
2023/08/02 03:02:40;;;;;;;0.00;0.00;;;;;;;;;;4935400;29;20405;-59
2023/08/02 03:05:09;;;;;;;0.10;0.10;;;;;;;;;;4935273;29;20134;-59
2023/08/02 03:07:36;;;;;;;0.05;0.05;;;;;;;;;;4935428;29;20463;-58
2023/08/02 03:10:03;;;;;;;0.03;0.03;;;;;;;;;;4935093;29;20051;-59
2023/08/02 03:12:30;;;;;;;0.00;0.00;;;;;;;;;;4935115;29;20055;-59
2023/08/02 03:14:57;;;;;;;0.10;0.10;;;;;;;;;;4935152;29;20051;-59
2023/08/02 03:17:24;;;;;;;0.10;0.10;;;;;;;;;;4935453;29;20406;-59
2023/08/02 03:19:51;;;;;;;0.03;0.03;;;;;;;;;;4933473;29;20063;-59
2023/08/02 03:22:20;;;;;;;0.00;0.00;;;;;;;;;;4935110;29;20106;-59
2023/08/02 03:24:50;;;;;;;0.00;0.00;;;;;;;;;;4934065;29;20051;-59
2023/08/02 03:27:17;;;;;;;0.00;0.00;;;;;;;;;;4935200;29;20463;-58
2023/08/02 03:29:44;;;;;;;0.00;0.00;;;;;;;;;;4935079;29;20550;-59
2023/08/02 03:32:11;;;;;;;0.00;0.00;;;;;;;;;;4934835;29;20055;-58
2023/08/02 03:34:38;;;;;;;0.10;0.10;;;;;;;;;;4935063;29;20055;-58
2023/08/02 03:37:06;;;;;;;0.10;0.10;;;;;;;;;;4934925;29;20060;-59
2023/08/02 03:39:34;;;;;;;0.08;0.08;;;;;;;;;;4934956;29;20049;-58
2023/08/02 03:42:01;;;;;;;0.10;0.10;;;;;;;;;;4936203;29;20047;-59
2023/08/02 03:44:28;;;;;;;0.00;0.00;;;;;;;;;;4938472;29;20135;-59
2023/08/02 03:46:56;;;;;;;0.00;0.00;;;;;;;;;;4938775;29;20103;-58
2023/08/02 03:49:23;;;;;;;0.10;0.10;;;;;;;;;;4938882;29;20143;-59
2023/08/02 03:51:50;;;;;;;0.10;0.10;;;;;;;;;;4938217;29;20058;-59
2023/08/02 03:54:17;;;;;;;0.00;0.00;;;;;;;;;;4937228;29;20139;-58
2023/08/02 03:56:45;;;;;;;0.00;0.00;;;;;;;;;;4937593;29;20135;-59
2023/08/02 03:59:12;;;;;;;0.10;0.10;;;;;;;;;;4937984;29;20051;-59
2023/08/02 04:01:39;;;;;;;0.10;0.10;;;;;;;;;;4938396;29;20044;-59
2023/08/02 04:04:07;;;;;;;0.00;0.00;;;;;;;;;;4938469;29;20040;-59
2023/08/02 04:06:34;;;;;;;0.08;0.08;;;;;;;;;;4938438;29;20048;-58
2023/08/02 04:09:01;;;;;;;0.00;0.00;;;;;;;;;;4938025;29;20112;-59
2023/08/02 04:11:28;;;;;;;0.10;0.10;;;;;;;;;;4938006;29;20052;-58
2023/08/02 04:13:57;;;;;;;0.10;0.10;;;;;;;;;;4938238;29;20488;-59
2023/08/02 04:16:24;;;;;;;0.00;0.00;;;;;;;;;;4937956;29;20130;-58
2023/08/02 04:18:51;;;;;;;0.10;0.10;;;;;;;;;;4938284;29;20055;-58
2023/08/02 04:21:19;;;;;;;0.00;0.00;;;;;;;;;;4937823;29;20047;-59
2023/08/02 04:23:47;;;;;;;0.00;0.00;;;;;;;;;;4937873;29;20044;-59
2023/08/02 04:26:14;;;;;;;0.10;0.10;;;;;;;;;;4952519;29;20464;-60
2023/08/02 04:28:42;;;;;;;0.10;0.10;;;;;;;;;;4937676;29;20047;-60
2023/08/02 04:31:10;;;;;;;0.00;0.00;;;;;;;;;;4937677;29;20056;-60
2023/08/02 04:33:37;;;;;;;0.10;0.10;;;;;;;;;;4937339;29;20118;-58
2023/08/02 04:36:04;;;;;;;0.10;0.10;;;;;;;;;;4937497;29;20044;-58
2023/08/02 04:38:32;;;;;;;0.10;0.10;;;;;;;;;;4937587;29;20078;-60
2023/08/02 04:40:59;;;;;;;0.10;0.10;;;;;;;;;;4937511;29;20545;-60
2023/08/02 04:43:26;;;;;;;0.00;0.00;;;;;;;;;;4952348;29;20395;-58
2023/08/02 04:45:53;;;;;;;0.10;0.10;;;;;;;;;;4937452;29;20047;-61
2023/08/02 04:48:21;;;;;;;0.00;0.00;;;;;;;;;;4937242;29;20051;-61
2023/08/02 04:50:48;;;;;;;0.15;0.15;;;;;;;;;;4937080;29;20135;-61
2023/08/02 04:53:15;;;;;;;0.10;0.10;;;;;;;;;;4936881;29;20088;-60
2023/08/02 04:59:01;;;;;;;0.10;0.10;;;;;;;;;;4936590;29;20131;-60
2023/08/02 05:01:28;;;;;;;0.08;0.08;;;;;;;;;;4936677;29;20047;-60
2023/08/02 05:03:57;;;;;;;0.10;0.10;;;;;;;;;;4936903;29;20396;-60
2023/08/02 05:06:24;;;;;;;0.10;0.10;;;;;;;;;;4936880;29;20452;-60
2023/08/02 05:08:51;;;;;;;0.10;0.10;;;;;;;;;;4936877;29;20058;-60
2023/08/02 05:11:18;;;;;;;0.10;0.10;;;;;;;;;;4936689;29;20139;-61
2023/08/02 05:13:45;;;;;;;0.10;0.10;;;;;;;;;;4936853;29;20067;-60
2023/08/02 05:16:12;;;;;;;0.10;0.10;;;;;;;;;;4936673;29;20075;-60
2023/08/02 05:18:39;;;;;;;0.10;0.10;;;;;;;;;;4937017;29;20526;-60
2023/08/02 05:21:12;;;;;;;0.10;0.10;;;;;;;;;;4935673;29;20055;-59
2023/08/02 05:23:39;;;;;;;0.10;0.10;;;;;;;;;;4936355;29;20050;-59
2023/08/02 05:26:06;;;;;;;0.00;0.00;;;;;;;;;;4936457;29;20075;-61
2023/08/02 05:28:33;;;;;;;0.10;0.10;;;;;;;;;;4935813;29;20529;-60
2023/08/02 05:31:00;;;;;;;0.10;0.10;;;;;;;;;;4936435;29;20059;-59
2023/08/02 05:33:27;;;;;;;0.10;0.10;;;;;;;;;;4936212;29;20503;-59
2023/08/02 05:35:54;;;;;;;0.10;0.10;;;;;;;;;;4934913;29;20079;-59
2023/08/02 05:38:23;;;;;;;0.00;0.00;;;;;;;;;;4934762;29;20053;-59
2023/08/02 05:40:50;;;;;;;0.10;0.10;;;;;;;;;;4935692;29;20044;-60
2023/08/02 05:43:17;;;;;;;0.00;0.00;;;;;;;;;;4936181;29;20054;-59
2023/08/02 05:45:44;;;;;;;0.10;0.10;;;;;;;;;;4935388;29;20448;-60
2023/08/02 05:48:11;;;;;;;0.10;0.10;;;;;;;;;;4934818;29;20052;-60
2023/08/02 05:50:38;;;;;;;0.00;0.00;;;;;;;;;;4935800;29;20048;-60
2023/08/02 05:53:05;;;;;;;0.10;0.10;;;;;;;;;;4935923;29;20497;-61
2023/08/02 05:55:34;;;;;;;0.10;0.10;;;;;;;;;;4935945;29;20043;-59
2023/08/02 05:58:01;;;;;;;0.00;0.00;;;;;;;;;;4918940;29;20534;-59
2023/08/02 06:00:28;;;;;;;0.00;0.00;;;;;;;;;;4935669;29;20047;-60
2023/08/02 06:02:55;;;;;;;0.10;0.10;;;;;;;;;;4935384;29;20154;-59
2023/08/02 06:05:22;;;;;;;0.10;0.10;;;;;;;;;;4935036;29;20063;-60
2023/08/02 06:07:49;;;;;;;0.10;0.10;;;;;;;;;;4935747;29;20043;-60
2023/08/02 06:10:16;;;;;;;0.00;0.00;;;;;;;;;;4935631;29;20068;-60
2023/08/02 06:12:45;;;;;;;0.10;0.10;;;;;;;;;;4935475;29;20452;-59
2023/08/02 06:15:12;;;;;;;0.10;0.10;;;;;;;;;;4935618;29;20055;-59
2023/08/02 06:17:39;;;;;;;0.10;0.10;;;;;;;;;;4935378;29;20051;-60
2023/08/02 06:20:07;;;;;;;0.10;0.10;;;;;;;;;;4934210;29;20428;-60
2023/08/02 06:22:34;;;;;;;0.10;0.10;;;;;;;;;;4935244;29;20067;-60
2023/08/02 06:25:01;;;;;;;0.10;0.10;;;;;;;;;;4935205;29;20125;-60
2023/08/02 06:27:29;;;;;;;0.00;0.00;;;;;;;;;;4935265;29;20065;-61
2023/08/02 06:29:57;;;;;;;0.10;0.10;;;;;;;;;;4950068;29;20050;-61
2023/08/02 06:32:24;;;;;;;0.10;0.10;;;;;;;;;;4935132;29;20051;-60
2023/08/02 06:34:51;;;;;;;0.00;0.00;;;;;;;;;;4935294;29;20070;-61
2023/08/02 06:39:59;;;;;;;0.10;0.10;;;;;;;;;;4934988;29;20127;-58
2023/08/02 06:42:26;;;;;;;0.00;0.00;;;;;;;;;;4935289;29;20131;-59
2023/08/02 06:44:54;;;;;;;0.00;0.00;;;;;;;;;;4935655;29;20099;-60
2023/08/02 06:47:22;;;;;;;0.00;0.00;;;;;;;;;;4935204;29;20044;-58
2023/08/02 06:49:49;;;;;;;0.10;0.10;;;;;;;;;;4935377;29;20044;-60
2023/08/02 06:52:17;;;;;;;0.10;0.10;;;;;;;;;;4935384;29;20051;-61
2023/08/02 06:54:44;;;;;;;0.00;0.00;;;;;;;;;;4935059;29;20051;-58
2023/08/02 06:57:11;;;;;;;0.00;0.00;;;;;;;;;;4934920;29;20055;-59
2023/08/02 06:59:38;;;;;;;0.00;0.00;;;;;;;;;;4935231;29;20185;-59
2023/08/02 07:02:07;;;;;;;0.10;0.10;;;;;;;;;;4935219;29;20052;-59
2023/08/02 07:04:35;;;;;;;0.00;0.00;;;;;;;;;;4935116;29;20518;-59
2023/08/02 07:07:02;;;;;;;0.00;0.00;;;;;;;;;;4933610;29;20062;-59
2023/08/02 07:09:29;;;;;;;0.00;0.00;;;;;;;;;;4933908;29;20051;-59
2023/08/02 07:11:57;;;;;;;0.10;0.10;;;;;;;;;;4934934;29;20048;-59
2023/08/02 07:14:24;;;;;;;0.00;0.00;;;;;;;;;;4935127;29;20054;-59
2023/08/02 07:16:51;;;;;;;0.10;0.10;;;;;;;;;;4936548;29;20048;-59
2023/08/02 07:19:18;;;;;;;0.10;0.10;;;;;;;;;;4938963;29;20410;-59
2023/08/02 07:21:49;;;;;;;0.10;0.10;;;;;;;;;;4938856;29;20047;-59
2023/08/02 07:24:16;;;;;;;0.10;0.10;;;;;;;;;;4938711;29;20447;-59
2023/08/02 07:26:43;;;;;;;0.00;0.00;;;;;;;;;;4938714;29;20043;-58
2023/08/02 07:29:10;;;;;;;0.00;0.00;;;;;;;;;;4938855;29;20381;-59
2023/08/02 07:31:37;;;;;;;0.00;0.00;;;;;;;;;;4938644;29;20047;-59
2023/08/02 07:34:04;;;;;;;0.10;0.10;;;;;;;;;;4938678;29;20146;-59
2023/08/02 07:36:31;;;;;;;0.00;0.00;;;;;;;;;;4938605;29;20062;-58
2023/08/02 07:39:02;;;;;;;0.10;0.10;;;;;;;;;;4938680;29;20483;-59
2023/08/02 07:41:29;;;;;;;0.10;0.10;;;;;;;;;;4938684;29;20043;-59
2023/08/02 07:43:56;;;;;;;0.10;0.10;;;;;;;;;;4938612;29;20048;-59
2023/08/02 07:46:23;;;;;;;0.10;0.10;;;;;;;;;;4938538;29;20212;-59
2023/08/02 07:48:50;;;;;;;0.10;0.10;;;;;;;;;;4938246;29;20052;-59
2023/08/02 07:51:17;;;;;;;0.00;0.00;;;;;;;;;;4938383;29;20079;-60
2023/08/02 07:53:44;;;;;;;0.05;0.05;;;;;;;;;;4938051;29;20056;-59
2023/08/02 07:56:13;;;;;;;0.00;0.00;;;;;;;;;;4938126;29;20134;-59
2023/08/02 07:58:40;;;;;;;0.00;0.00;;;;;;;;;;4938003;29;20052;-59
2023/08/02 08:01:07;;;;;;;0.10;0.10;;;;;;;;;;4938110;29;20044;-58
2023/08/02 08:03:34;;;;;;;0.10;0.10;;;;;;;;;;4938001;29;20062;-59
2023/08/02 08:06:01;;;;;;;0.10;0.10;;;;;;;;;;4937560;29;20135;-59
2023/08/02 08:08:29;;;;;;;0.10;0.10;;;;;;;;;;4937624;29;20475;-60
2023/08/02 08:10:56;;;;;;;0.00;0.00;;;;;;;;;;4938230;29;20138;-59
2023/08/02 08:13:24;;;;;;;0.00;0.00;;;;;;;;;;4938156;29;20058;-59
2023/08/02 08:15:51;;;;;;;0.10;0.10;;;;;;;;;;4937682;29;20099;-59
2023/08/02 08:18:18;;;;;;;0.00;0.00;;;;;;;;;;4937593;29;20044;-59
2023/08/02 08:20:45;;;;;;;0.03;0.03;;;;;;;;;;4937776;29;20098;-59
2023/08/02 08:23:13;;;;;;;0.03;0.03;;;;;;;;;;4937494;29;20056;-59
2023/08/02 08:25:40;;;;;;;0.10;0.10;;;;;;;;;;4937370;29;20051;-59
2023/08/02 08:28:07;;;;;;;0.00;0.00;;;;;;;;;;4936855;29;20475;-59
2023/08/02 08:30:36;;;;;;;0.10;0.10;;;;;;;;;;4936707;29;20063;-59
2023/08/02 08:33:03;;;;;;;0.00;0.00;;;;;;;;;;4937522;29;20075;-59
2023/08/02 08:35:30;;;;;;;0.10;0.10;;;;;;;;;;4936841;29;20511;-58
2023/08/02 08:37:57;;;;;;;0.00;0.00;;;;;;;;;;4937645;29;20090;-58
2023/08/02 08:40:24;;;;;;;0.10;0.10;;;;;;;;;;4937342;29;20190;-59
2023/08/02 08:42:51;;;;;;;0.10;0.10;;;;;;;;;;4937362;29;20051;-59
2023/08/02 08:45:18;;;;;;;0.00;0.00;;;;;;;;;;4937315;29;20463;-59
2023/08/02 08:47:47;;;;;;;0.10;0.10;;;;;;;;;;4937185;29;20133;-59
2023/08/02 08:50:14;;;;;;;0.00;0.00;;;;;;;;;;4937285;29;20047;-59
2023/08/02 08:52:41;;;;;;;0.00;0.00;;;;;;;;;;4937370;29;20050;-59
2023/08/02 08:55:08;;;;;;;0.00;0.00;;;;;;;;;;4937115;29;20095;-59
2023/08/02 08:57:35;;;;;;;0.00;0.00;;;;;;;;;;4937034;29;20051;-59
2023/08/02 09:00:03;;;;;;;0.00;0.00;;;;;;;;;;4937076;29;20048;-59
2023/08/02 09:02:31;;;;;;;0.10;0.10;;;;;;;;;;4936923;29;20582;-59
2023/08/02 09:05:00;;;;;;;0.10;0.10;;;;;;;;;;4937337;29;20047;-59
2023/08/02 09:07:27;;;;;;;0.00;0.00;;;;;;;;;;4935823;29;20051;-59
2023/08/02 09:09:55;;;;;;;0.00;0.00;;;;;;;;;;4936932;29;20082;-59
2023/08/02 09:12:24;;;;;;;0.00;0.00;;;;;;;;;;4936822;29;20057;-59
2023/08/02 09:15:01;;;;;;;0.00;0.00;;;;;;;;;;4937303;29;20078;-59
2023/08/02 09:17:28;;;;;;;0.00;0.00;;;;;;;;;;4936729;29;20445;-59
2023/08/02 09:20:09;;;;;;;0.00;0.00;;;;;;;;;;4935581;29;20147;-59
2023/08/02 09:22:36;;;;;;;0.00;0.00;;;;;;;;;;4936362;29;20063;-59
2023/08/02 09:25:06;;;;;;;0.10;0.10;;;;;;;;;;4951311;29;20058;-59
2023/08/02 09:27:34;;;;;;;0.10;0.10;;;;;;;;;;4936959;29;20094;-59
2023/08/02 09:30:01;;;;;;;0.10;0.10;;;;;;;;;;4936406;29;20102;-59
2023/08/02 09:32:28;;;;;;;0.00;0.00;;;;;;;;;;4936274;29;20044;-59
2023/08/02 09:34:55;;;;;;;0.00;0.00;;;;;;;;;;4935141;29;20055;-59
2023/08/02 09:37:38;;;;;;;0.00;0.00;;;;;;;;;;4936263;29;20053;-59
2023/08/02 09:40:09;;;;;;;0.10;0.10;;;;;;;;;;4935246;29;20043;-59
2023/08/02 09:42:36;;;;;;;0.10;0.10;;;;;;;;;;4936756;29;20122;-59
2023/08/02 09:45:03;;;;;;;0.00;0.00;;;;;;;;;;4936323;29;20048;-59
2023/08/02 09:47:31;;;;;;;0.10;0.10;;;;;;;;;;4936461;29;20447;-60
2023/08/02 09:50:08;;;;;;;0.00;0.00;;;;;;;;;;4936176;29;20072;-59
2023/08/02 09:52:35;;;;;;;0.00;0.00;;;;;;;;;;4935449;29;20065;-59
2023/08/02 09:55:06;;;;;;;0.10;0.10;;;;;;;;;;4935979;29;20059;-59
2023/08/02 09:57:33;;;;;;;0.00;0.00;;;;;;;;;;4935638;29;20586;-59
2023/08/02 10:00:12;;;;;;;0.00;0.00;;;;;;;;;;5097004;27;20436;-59
2023/08/02 10:02:39;;;;;;;0.05;0.05;;;;;;;;;;5097990;28;20044;-59
2023/08/02 10:05:07;;;;;;;0.00;0.00;;;;;;;;;;5096392;28;20074;-59
2023/08/02 10:07:36;;;;;;;0.00;0.00;;;;;;;;;;5095587;28;20514;-59
2023/08/02 10:10:05;;;;;;;0.00;0.00;;;;;;;;;;5099336;28;20572;-58
2023/08/02 10:12:32;;;;;;;0.00;0.00;;;;;;;;;;5097303;28;20866;-60
2023/08/02 10:14:59;;;;;;;0.00;0.00;;;;;;;;;;5114447;28;20066;-60
2023/08/02 10:17:28;;;;;;;0.15;0.10;;;;;;;;;;5091457;28;20074;-60
2023/08/02 10:19:55;;;;;;;0.00;0.00;;;;;;;;;;5095322;28;20129;-59
2023/08/02 10:22:22;;;;;;;0.00;0.00;;;;;;;;;;5098557;28;20240;-60
2023/08/02 10:24:49;;;;;;;0.03;0.03;;;;;;;;;;5100828;28;20116;-60
2023/08/02 10:27:16;;;;;;;0.00;0.00;;;;;;;;;;5096605;28;20112;-60
2023/08/02 10:29:43;;;;;;;0.00;0.00;;;;;;;;;;5098602;28;20510;-60
2023/08/02 10:32:13;;;;;;;0.00;0.00;;;;;;;;;;5101927;28;20428;-60
2023/08/02 10:34:46;;;;;;;0.00;0.00;;;;;;;;;;5097452;28;20050;-59
2023/08/02 10:37:13;;;;;;;0.00;0.00;;;;;;;;;;5099256;28;20040;-60
2023/08/02 10:39:52;;;;;;;0.00;0.00;;;;;;;;;;5100174;28;20109;-60
2023/08/02 10:42:19;;;;;;;0.03;0.03;;;;;;;;;;5099277;28;20134;-60
2023/08/02 10:45:01;;;;;;;0.00;0.00;;;;;;;;;;5097080;28;20039;-60
2023/08/02 10:47:29;;;;;;;0.00;0.00;;;;;;;;;;5099523;28;20043;-60
2023/08/02 10:49:58;;;;;;;0.00;0.00;;;;;;;;;;5095185;28;20040;-60
2023/08/02 10:52:25;;;;;;;0.00;0.00;;;;;;;;;;5098219;28;20047;-59
2023/08/02 10:55:05;;;;;;;0.00;0.00;;;;;;;;;;5100118;28;20511;-60
2023/08/02 10:57:32;;;;;;;0.00;0.00;;;;;;;;;;5100511;28;20549;-60
2023/08/02 10:59:59;;;;;;;0.00;0.00;;;;;;;;;;5100764;28;20054;-60
2023/08/02 11:02:26;;;;;;;0.00;0.00;;;;;;;;;;5098155;28;20578;-60
2023/08/02 11:04:53;;;;;;;0.00;0.00;;;;;;;;;;5097988;28;20044;-60
2023/08/02 11:07:22;;;;;;;0.00;0.00;;;;;;;;;;5097222;28;20047;-59
2023/08/02 11:09:54;;;;;;;0.00;0.00;;;;;;;;;;5094977;28;20046;-59
2023/08/02 11:12:21;;;;;;;0.00;0.00;;;;;;;;;;5083909;28;20048;-59
2023/08/02 11:14:52;;;;;;;0.00;0.00;;;;;;;;;;5085833;28;20043;-59
2023/08/02 11:17:19;;;;;;;0.05;0.05;;;;;;;;;;5083163;28;20055;-59
2023/08/02 11:19:46;;;;;;;0.00;0.00;;;;;;;;;;5086195;28;20503;-59
2023/08/02 11:22:13;;;;;;;0.00;0.00;;;;;;;;;;5083660;28;20443;-58
2023/08/02 11:24:45;;;;;;;0.00;0.00;;;;;;;;;;5083601;28;20491;-58
2023/08/02 11:27:17;;;;;;;0.10;0.10;;;;;;;;;;5085478;28;20513;-58
2023/08/02 11:29:56;;;;;;;0.00;0.00;;;;;;;;;;5082973;28;20051;-59
2023/08/02 11:32:23;;;;;;;0.00;0.00;;;;;;;;;;5083155;28;20044;-59
2023/08/02 11:34:50;;;;;;;0.00;0.00;;;;;;;;;;5084986;28;20044;-61
2023/08/02 11:37:17;;;;;;;0.08;0.08;;;;;;;;;;5082268;28;20376;-59
2023/08/02 11:39:52;;;;;;;0.00;0.00;;;;;;;;;;5082869;28;20201;-59
2023/08/02 11:42:19;;;;;;;0.00;0.00;;;;;;;;;;5077686;28;20047;-60
2023/08/02 11:44:46;;;;;;;0.00;0.00;;;;;;;;;;5086770;28;20502;-59
2023/08/02 11:47:13;;;;;;;0.00;0.00;;;;;;;;;;5084553;28;20083;-60
2023/08/02 11:49:50;;;;;;;0.00;0.00;;;;;;;;;;5083468;28;20501;-59
2023/08/02 11:52:24;;;;;;;0.00;0.00;;;;;;;;;;5083225;28;20083;-59
2023/08/02 11:54:53;;;;;;;0.00;0.00;;;;;;;;;;5083775;28;20051;-59
2023/08/02 11:57:20;;;;;;;0.00;0.00;;;;;;;;;;5083967;28;20051;-59
2023/08/02 11:59:47;;;;;;;0.00;0.00;;;;;;;;;;5085315;28;20138;-59
2023/08/02 12:02:24;;;;;;;0.10;0.10;;;;;;;;;;5085081;28;20040;-59
2023/08/02 12:04:51;;;;;;;0.00;0.00;;;;;;;;;;5092777;28;20498;-60
2023/08/02 12:07:24;;;;;;;0.00;0.00;;;;;;;;;;5084494;28;20531;-59
2023/08/02 12:09:53;;;;;;;0.00;0.00;;;;;;;;;;5084710;28;20052;-59
2023/08/02 12:12:20;;;;;;;0.00;0.00;;;;;;;;;;5079305;28;20032;-58
2023/08/02 12:14:47;;;;;;;0.00;0.00;;;;;;;;;;5083106;28;20044;-59
2023/08/02 12:17:20;;;;;;;0.00;0.00;;;;;;;;;;5080590;28;20481;-59
2023/08/02 12:19:47;;;;;;;0.00;0.00;;;;;;;;;;5084279;28;20055;-59
2023/08/02 12:22:14;;;;;;;0.00;0.00;;;;;;;;;;5083017;28;20055;-60
2023/08/02 12:24:41;;;;;;;0.00;0.00;;;;;;;;;;5082359;28;20128;-60
2023/08/02 12:27:14;;;;;;;0.00;0.00;;;;;;;;;;5086058;28;20085;-60
2023/08/02 12:29:42;;;;;;;0.00;0.00;;;;;;;;;;5084996;28;20032;-59
2023/08/02 12:32:09;;;;;;;0.00;0.00;;;;;;;;;;5084937;28;20044;-60
2023/08/02 12:34:37;;;;;;;0.00;0.00;;;;;;;;;;5084746;28;20045;-60
2023/08/02 12:37:05;;;;;;;0.00;0.00;;;;;;;;;;5079980;28;20052;-60
2023/08/02 12:39:32;;;;;;;0.00;0.00;;;;;;;;;;5096483;28;20469;-60
2023/08/02 12:41:59;;;;;;;0.00;0.00;;;;;;;;;;5080800;28;20040;-59
2023/08/02 12:44:27;;;;;;;0.00;0.00;;;;;;;;;;5083044;28;20043;-60
2023/08/02 12:46:55;;;;;;;0.00;0.00;;;;;;;;;;5082662;28;20044;-61
2023/08/02 12:49:21;;;;;;;0.00;0.00;;;;;;;;;;5084061;28;20115;-60
2023/08/02 12:51:49;;;;;;;0.00;0.00;;;;;;;;;;5084449;28;20036;-62
2023/08/02 12:54:16;;;;;;;0.00;0.00;;;;;;;;;;5081093;28;20048;-59
2023/08/02 12:56:43;;;;;;;0.00;0.00;;;;;;;;;;5080274;28;20357;-61
2023/08/02 12:59:10;;;;;;;0.00;0.00;;;;;;;;;;5084750;28;20048;-60
2023/08/02 13:01:40;;;;;;;0.00;0.00;;;;;;;;;;5084017;28;20123;-60
2023/08/02 13:04:07;;;;;;;0.00;0.00;;;;;;;;;;5085010;28;20047;-59
2023/08/02 13:06:34;;;;;;;0.00;0.00;;;;;;;;;;5082241;28;20514;-60
2023/08/02 13:09:01;;;;;;;0.00;0.00;;;;;;;;;;5081975;28;20052;-60
2023/08/02 13:11:28;;;;;;;0.00;0.00;;;;;;;;;;5083557;28;20483;-60
2023/08/02 13:13:55;;;;;;;0.00;0.00;;;;;;;;;;5079332;28;20097;-59
2023/08/02 13:16:22;;;;;;;0.00;0.00;;;;;;;;;;5079522;28;20068;-60
2023/08/02 13:18:50;;;;;;;0.00;0.00;;;;;;;;;;5084932;28;20067;-60
2023/08/02 13:21:19;;;;;;;0.00;0.00;;;;;;;;;;5084509;28;20040;-60
2023/08/02 13:23:47;;;;;;;0.00;0.00;;;;;;;;;;5083291;28;20048;-59
2023/08/02 13:26:14;;;;;;;0.00;0.00;;;;;;;;;;5080594;28;20067;-60
2023/08/02 13:28:41;;;;;;;0.03;0.03;;;;;;;;;;5084532;28;20072;-59
2023/08/02 13:31:08;;;;;;;0.00;0.00;;;;;;;;;;5084865;28;20136;-60
2023/08/02 13:33:35;;;;;;;0.00;0.00;;;;;;;;;;5081046;28;20044;-59
2023/08/02 13:36:03;;;;;;;0.00;0.00;;;;;;;;;;5084015;28;20083;-59
2023/08/02 13:38:31;;;;;;;0.00;0.00;;;;;;;;;;5082085;28;20127;-60
2023/08/02 13:40:58;;;;;;;0.00;0.00;;;;;;;;;;5084000;28;20055;-59
2023/08/02 13:43:26;;;;;;;0.00;0.00;;;;;;;;;;5080908;28;20043;-59
2023/08/02 13:45:53;;;;;;;0.00;0.00;;;;;;;;;;5078409;28;20106;-59
2023/08/02 13:48:20;;;;;;;0.00;0.00;;;;;;;;;;5078742;28;20136;-59
2023/08/02 13:50:47;;;;;;;0.00;0.00;;;;;;;;;;5079734;28;20044;-59
2023/08/02 13:53:16;;;;;;;0.00;0.00;;;;;;;;;;5082185;28;20056;-60
2023/08/02 13:55:43;;;;;;;0.00;0.00;;;;;;;;;;5081378;28;20038;-59
2023/08/02 13:58:10;;;;;;;0.00;0.00;;;;;;;;;;5082604;28;20514;-59
2023/08/02 14:00:37;;;;;;;0.00;0.00;;;;;;;;;;5083825;28;20608;-59
2023/08/02 14:03:04;;;;;;;0.00;0.00;;;;;;;;;;5079663;28;20071;-59
2023/08/02 14:05:31;;;;;;;0.00;0.00;;;;;;;;;;5080258;28;20174;-59
2023/08/02 14:07:58;;;;;;;0.00;0.00;;;;;;;;;;5081800;28;20407;-59
2023/08/02 14:10:27;;;;;;;0.00;0.00;;;;;;;;;;5084813;28;20048;-59
2023/08/02 14:12:54;;;;;;;0.00;0.00;;;;;;;;;;5082991;28;20067;-60
2023/08/02 14:15:21;;;;;;;0.00;0.00;;;;;;;;;;5079950;28;20040;-59
2023/08/02 14:17:48;;;;;;;0.00;0.00;;;;;;;;;;5082461;28;20383;-59
2023/08/02 14:20:15;;;;;;;0.00;0.00;;;;;;;;;;5077892;28;20534;-59
2023/08/02 14:22:42;;;;;;;0.00;0.00;;;;;;;;;;5077995;28;20037;-59
2023/08/02 14:25:10;;;;;;;0.00;0.00;;;;;;;;;;5080361;28;20043;-60
2023/08/02 14:27:39;;;;;;;0.00;0.00;;;;;;;;;;5081184;28;20040;-60
2023/08/02 14:30:07;;;;;;;0.00;0.00;;;;;;;;;;5085210;28;20105;-59
2023/08/02 14:32:34;;;;;;;0.00;0.00;;;;;;;;;;5083859;28;20052;-59
2023/08/02 14:35:01;;;;;;;0.00;0.00;;;;;;;;;;5082839;28;20066;-58
2023/08/02 14:37:28;;;;;;;0.00;0.00;;;;;;;;;;5077584;28;20103;-60
2023/08/02 14:39:55;;;;;;;0.00;0.00;;;;;;;;;;5081952;28;20160;-59
2023/08/02 14:42:22;;;;;;;0.00;0.00;;;;;;;;;;5083930;28;20032;-59
2023/08/02 14:44:51;;;;;;;0.00;0.00;;;;;;;;;;5083302;28;20097;-58
2023/08/02 14:47:18;;;;;;;0.00;0.00;;;;;;;;;;5085302;28;20124;-58
2023/08/02 14:49:45;;;;;;;0.00;0.00;;;;;;;;;;5083537;28;20398;-60
2023/08/02 14:52:12;;;;;;;0.00;0.00;;;;;;;;;;5086330;28;20486;-60